createdAt,value
2022-10-26T00:01:40.752Z,9.18
2022-10-26T00:04:10.771Z,8.82
2022-10-26T00:06:40.813Z,9.13
2022-10-26T00:09:10.770Z,9.15
2022-10-26T00:11:40.466Z,9.68
2022-10-26T00:14:10.155Z,8.50
2022-10-26T00:16:39.876Z,8.88
2022-10-26T00:19:09.771Z,9.23
2022-10-26T00:21:39.535Z,9.10
2022-10-26T00:24:09.610Z,9.63
2022-10-26T00:26:39.553Z,9.10
2022-10-26T00:29:09.433Z,8.15
2022-10-26T00:31:39.644Z,9.00
2022-10-26T00:34:09.520Z,8.20
2022-10-26T00:36:39.221Z,8.77
2022-10-26T00:39:08.939Z,8.23
2022-10-26T00:41:38.694Z,7.60
2022-10-26T00:44:26.776Z,7.70
2022-10-26T00:46:56.398Z,7.50
2022-10-26T00:49:26.353Z,7.13
2022-10-26T00:51:55.951Z,8.00
2022-10-26T00:54:25.919Z,8.82
2022-10-26T00:56:55.542Z,8.45
2022-10-26T00:59:25.252Z,6.80
2022-10-26T01:01:55.024Z,6.75
2022-10-26T01:04:24.680Z,7.18
2022-10-26T01:06:54.611Z,6.45
2022-10-26T01:09:25.614Z,5.82
2022-10-26T01:11:55.722Z,6.32
2022-10-26T01:14:25.589Z,7.03
2022-10-26T01:16:58.335Z,6.22
2022-10-26T01:19:34.341Z,6.53
2022-10-26T01:22:11.282Z,6.90
2022-10-26T01:24:40.962Z,6.13
2022-10-26T01:27:24.357Z,6.35
2022-10-26T01:30:00.038Z,6.40
2022-10-26T01:32:30.564Z,4.68
2022-10-26T01:35:05.762Z,5.68
2022-10-26T01:37:36.272Z,4.55
2022-10-26T01:40:09.488Z,4.05
2022-10-26T01:42:39.429Z,3.78
2022-10-26T01:45:10.079Z,3.42
2022-10-26T01:47:39.657Z,2.97
2022-10-26T01:50:09.480Z,2.85
2022-10-26T01:52:39.195Z,3.75
2022-10-26T01:55:10.128Z,4.75
2022-10-26T01:57:39.754Z,4.72
2022-10-26T02:00:12.824Z,5.20
2022-10-26T02:02:59.240Z,6.30
2022-10-26T02:05:32.993Z,2.88
2022-10-26T02:08:11.930Z,3.83
2022-10-26T02:10:41.813Z,5.18
2022-10-26T02:13:29.360Z,4.57
2022-10-26T02:15:59.131Z,4.78
2022-10-26T02:18:28.781Z,3.58
2022-10-26T02:20:59.601Z,3.67
2022-10-26T02:23:29.586Z,3.78
2022-10-26T02:25:59.782Z,3.60
2022-10-26T02:28:33.820Z,3.40
2022-10-26T02:31:04.001Z,4.50
2022-10-26T02:33:34.375Z,3.63
2022-10-26T02:36:04.247Z,4.70
2022-10-26T02:38:34.231Z,4.22
2022-10-26T02:41:04.041Z,3.78
2022-10-26T02:43:34.149Z,3.35
2022-10-26T02:46:05.454Z,3.05
2022-10-26T02:48:35.110Z,3.97
2022-10-26T02:51:12.716Z,3.88
2022-10-26T02:54:05.384Z,3.85
2022-10-26T02:56:53.558Z,4.07
2022-10-26T02:59:23.628Z,3.87
2022-10-26T03:01:53.664Z,15.65
2022-10-26T03:04:23.687Z,2.33
2022-10-26T03:06:56.916Z,2.90
2022-10-26T03:09:26.649Z,4.57
2022-10-26T03:11:56.376Z,4.47
2022-10-26T03:14:26.064Z,3.72
2022-10-26T03:16:55.804Z,3.38
2022-10-26T03:19:25.655Z,4.18
2022-10-26T03:21:55.237Z,2.78
2022-10-26T03:24:24.973Z,3.15
2022-10-26T03:26:57.066Z,2.50
2022-10-26T03:29:29.361Z,3.33
2022-10-26T03:31:59.714Z,3.38
2022-10-26T03:34:29.444Z,2.67
2022-10-26T03:36:59.041Z,3.17
2022-10-26T03:39:28.943Z,3.13
2022-10-26T03:42:02.252Z,3.63
2022-10-26T03:44:32.641Z,3.40
2022-10-26T03:47:02.315Z,2.50
2022-10-26T03:49:31.992Z,3.60
2022-10-26T03:52:01.865Z,3.13
2022-10-26T03:54:31.625Z,2.67
2022-10-26T03:57:01.340Z,2.70
2022-10-26T03:59:31.368Z,3.72
2022-10-26T04:02:01.200Z,3.00
2022-10-26T04:04:31.142Z,2.65
2022-10-26T04:07:00.781Z,3.72
2022-10-26T04:09:30.452Z,3.40
2022-10-26T04:12:00.586Z,2.90
2022-10-26T04:14:30.154Z,2.78
2022-10-26T04:16:59.754Z,3.13
2022-10-26T04:19:29.340Z,2.95
2022-10-26T04:21:59.341Z,3.13
2022-10-26T04:24:28.944Z,3.20
2022-10-26T04:26:58.561Z,3.30
2022-10-26T04:29:28.158Z,3.92
2022-10-26T04:31:58.054Z,3.08
2022-10-26T04:34:27.943Z,3.13
2022-10-26T04:36:57.785Z,3.08
2022-10-26T04:39:27.570Z,3.00
2022-10-26T04:41:57.268Z,3.92
2022-10-26T04:44:26.863Z,2.78
2022-10-26T04:46:56.669Z,3.80
2022-10-26T04:49:26.575Z,3.53
2022-10-26T04:51:56.462Z,3.58
2022-10-26T04:54:26.074Z,4.13
2022-10-26T04:56:55.937Z,5.32
2022-10-26T04:59:26.005Z,3.15
2022-10-26T05:01:55.670Z,3.20
2022-10-26T05:04:25.710Z,3.60
2022-10-26T05:06:55.921Z,4.13
2022-10-26T05:09:25.566Z,4.57
2022-10-26T05:11:55.450Z,4.72
2022-10-26T05:14:25.243Z,5.07
2022-10-26T05:16:57.116Z,5.53
2022-10-26T05:19:26.760Z,4.10
2022-10-26T05:21:56.450Z,4.93
2022-10-26T05:24:26.278Z,4.90
2022-10-26T05:26:55.966Z,4.65
2022-10-26T05:29:25.846Z,4.30
2022-10-26T05:31:55.533Z,4.90
2022-10-26T05:34:26.369Z,4.50
2022-10-26T05:36:56.608Z,4.70
2022-10-26T05:39:26.326Z,4.78
2022-10-26T05:41:55.986Z,4.15
2022-10-26T05:44:25.608Z,4.43
2022-10-26T05:46:55.398Z,4.40
2022-10-26T05:49:25.434Z,4.28
2022-10-26T05:51:55.229Z,4.07
2022-10-26T05:54:24.931Z,4.55
2022-10-26T05:56:54.856Z,4.57
2022-10-26T05:59:24.644Z,4.60
2022-10-26T06:01:54.760Z,5.03
2022-10-26T06:04:24.687Z,4.72
2022-10-26T06:06:58.872Z,4.30
2022-10-26T06:09:28.756Z,4.28
2022-10-26T06:11:58.769Z,3.22
2022-10-26T06:14:28.641Z,4.05
2022-10-26T06:17:03.298Z,3.90
2022-10-26T06:19:36.842Z,4.10
2022-10-26T06:22:23.633Z,3.33
2022-10-26T06:25:05.674Z,3.25
2022-10-26T06:27:56.279Z,3.00
2022-10-26T06:30:27.135Z,3.90
2022-10-26T06:33:05.924Z,3.20
2022-10-26T06:35:47.358Z,3.33
2022-10-26T06:38:20.867Z,3.55
2022-10-26T06:40:52.741Z,3.55
2022-10-26T06:43:29.530Z,4.63
2022-10-26T06:46:11.581Z,5.20
2022-10-26T06:48:47.451Z,4.07
2022-10-26T06:51:18.025Z,3.63
2022-10-26T06:53:50.708Z,4.07
2022-10-26T06:56:20.413Z,4.30
2022-10-26T06:58:50.250Z,4.40
2022-10-26T07:01:20.291Z,4.07
2022-10-26T07:03:50.308Z,5.03
2022-10-26T07:08:49.445Z,3.15
2022-10-26T07:11:19.342Z,2.90
2022-10-26T07:13:51.414Z,3.30
2022-10-26T07:16:22.738Z,4.25
2022-10-26T07:18:52.797Z,3.63
2022-10-26T07:21:22.913Z,3.33
2022-10-26T07:23:53.937Z,3.38
2022-10-26T07:26:23.727Z,3.88
2022-10-26T07:28:56.457Z,3.13
2022-10-26T07:31:27.365Z,2.80
2022-10-26T07:33:57.318Z,3.53
2022-10-26T07:36:27.220Z,4.70
2022-10-26T07:38:56.906Z,3.88
2022-10-26T07:41:26.635Z,4.72
2022-10-26T07:43:56.544Z,4.50
2022-10-26T07:46:26.284Z,4.78
2022-10-26T07:48:56.140Z,4.25
2022-10-26T07:51:25.895Z,4.28
2022-10-26T07:53:55.615Z,3.70
2022-10-26T07:56:25.303Z,3.92
2022-10-26T07:58:57.673Z,3.97
2022-10-26T08:01:27.710Z,4.65
2022-10-26T08:03:58.367Z,3.95
2022-10-26T08:06:28.285Z,4.75
2022-10-26T08:08:57.907Z,4.20
2022-10-26T08:11:27.896Z,3.58
2022-10-26T08:13:57.832Z,4.70
2022-10-26T08:16:27.658Z,4.43
2022-10-26T08:18:57.656Z,4.68
2022-10-26T08:21:39.120Z,5.18
2022-10-26T08:24:09.976Z,5.32
2022-10-26T08:26:39.685Z,5.45
2022-10-26T08:29:09.593Z,5.25
2022-10-26T08:31:42.070Z,4.30
2022-10-26T08:34:12.144Z,4.03
2022-10-26T08:36:42.079Z,5.70
2022-10-26T08:39:11.763Z,4.85
2022-10-26T08:41:41.445Z,5.65
2022-10-26T08:44:16.094Z,6.47
2022-10-26T08:46:47.437Z,6.18
2022-10-26T08:49:25.788Z,7.07
2022-10-26T08:51:57.565Z,6.47
2022-10-26T08:54:43.500Z,5.60
2022-10-26T08:57:18.096Z,4.50
2022-10-26T08:59:52.091Z,5.85
2022-10-26T09:02:22.232Z,4.47
2022-10-26T09:04:51.973Z,4.95
2022-10-26T09:07:31.438Z,5.00
2022-10-26T09:13:09.211Z,5.13
2022-10-26T09:16:05.209Z,4.28
2022-10-26T09:19:07.609Z,4.75
2022-10-26T09:21:50.529Z,5.55
2022-10-26T09:24:25.615Z,5.00
2022-10-26T09:27:24.263Z,4.60
2022-10-26T09:29:54.465Z,5.63
2022-10-26T09:32:26.330Z,5.22
2022-10-26T09:34:56.785Z,6.25
2022-10-26T09:37:37.089Z,5.50
2022-10-26T09:40:15.369Z,5.13
2022-10-26T09:42:47.035Z,4.77
2022-10-26T09:45:21.121Z,6.10
2022-10-26T09:47:54.674Z,5.47
2022-10-26T09:50:24.544Z,5.75
2022-10-26T09:52:54.200Z,6.00
2022-10-26T09:55:24.325Z,5.88
2022-10-26T09:57:55.686Z,7.28
2022-10-26T10:00:25.990Z,5.88
2022-10-26T10:02:56.878Z,5.47
2022-10-26T10:05:49.824Z,6.38
2022-10-26T10:08:27.157Z,6.60
2022-10-26T10:10:57.697Z,6.75
2022-10-26T10:13:27.951Z,5.68
2022-10-26T10:15:58.510Z,10.82
2022-10-26T10:18:28.183Z,6.00
2022-10-26T10:21:03.184Z,7.68
2022-10-26T10:23:38.405Z,5.45
2022-10-26T10:26:18.316Z,6.47
2022-10-26T10:29:01.676Z,5.60
2022-10-26T10:31:35.347Z,5.90
2022-10-26T10:34:22.585Z,6.15
2022-10-26T10:36:53.012Z,5.88
2022-10-26T10:39:35.306Z,6.97
2022-10-26T10:42:05.557Z,5.95
2022-10-26T10:44:35.448Z,6.00
2022-10-26T10:47:05.589Z,6.53
2022-10-26T10:49:35.582Z,17.50
2022-10-26T10:52:05.410Z,8.10
2022-10-26T10:54:38.945Z,7.65
2022-10-26T10:57:12.779Z,7.03
2022-10-26T10:59:42.786Z,6.55
2022-10-26T11:02:34.014Z,6.40
2022-10-26T11:05:24.900Z,7.40
2022-10-26T11:08:01.345Z,7.00
2022-10-26T11:10:32.184Z,7.45
2022-10-26T11:13:05.746Z,9.73
2022-10-26T11:15:36.496Z,8.00
2022-10-26T11:18:16.558Z,7.22
2022-10-26T11:20:48.482Z,7.95
2022-10-26T11:23:26.382Z,8.35
2022-10-26T11:25:56.941Z,8.82
2022-10-26T11:28:34.348Z,9.10
2022-10-26T11:31:06.210Z,8.98
2022-10-26T11:33:37.131Z,9.27
2022-10-26T11:36:16.047Z,8.90
2022-10-26T11:38:56.758Z,7.75
2022-10-26T11:41:28.879Z,9.13
2022-10-26T11:44:04.868Z,8.45
2022-10-26T11:46:40.050Z,8.85
2022-10-26T11:49:12.975Z,8.32
2022-10-26T11:51:45.912Z,9.90
2022-10-26T11:54:38.434Z,11.00
2022-10-26T11:57:08.329Z,10.25
2022-10-26T11:59:39.845Z,9.75
2022-10-26T12:02:13.499Z,9.43
2022-10-26T12:04:43.323Z,10.57
2022-10-26T12:07:17.073Z,10.38
2022-10-26T12:09:47.173Z,10.05
2022-10-26T12:12:33.797Z,9.70
2022-10-26T12:15:30.858Z,9.10
2022-10-26T12:18:36.828Z,9.60
2022-10-26T12:21:12.524Z,8.48
2022-10-26T12:23:56.021Z,8.68
2022-10-26T12:26:32.013Z,9.25
2022-10-26T12:29:04.967Z,8.93
2022-10-26T12:31:37.100Z,7.82
2022-10-26T12:34:07.469Z,8.65
2022-10-26T12:36:53.453Z,8.45
2022-10-26T12:39:32.942Z,8.30
2022-10-26T12:42:08.693Z,7.53
2022-10-26T12:44:38.378Z,7.30
2022-10-26T12:47:07.971Z,7.43
2022-10-26T12:49:56.098Z,7.93
2022-10-26T12:52:30.314Z,7.13
2022-10-26T12:55:16.329Z,7.57
2022-10-26T12:58:01.558Z,6.88
2022-10-26T13:03:20.246Z,8.38
2022-10-26T13:05:53.778Z,7.70
2022-10-26T13:08:23.658Z,7.45
2022-10-26T13:11:04.110Z,7.50
2022-10-26T13:13:34.693Z,7.30
2022-10-26T13:16:05.554Z,7.20
2022-10-26T13:18:39.650Z,7.40
2022-10-26T13:21:11.485Z,7.00
2022-10-26T13:23:42.670Z,7.38
2022-10-26T13:26:16.684Z,7.22
2022-10-26T13:28:47.946Z,7.30
2022-10-26T13:31:42.975Z,6.72
2022-10-26T13:34:16.149Z,8.05
2022-10-26T13:36:48.498Z,7.13
2022-10-26T13:39:18.131Z,7.13
2022-10-26T13:41:54.640Z,9.02
2022-10-26T13:44:44.222Z,7.78
2022-10-26T13:47:15.387Z,8.32
2022-10-26T13:49:46.204Z,9.25
2022-10-26T13:52:32.483Z,9.02
2022-10-26T13:55:06.854Z,7.85
2022-10-26T13:57:45.250Z,9.32
2022-10-26T14:00:24.399Z,11.07
2022-10-26T14:07:59.129Z,8.70
2022-10-26T14:10:33.033Z,11.00
2022-10-26T14:13:02.846Z,9.77
2022-10-26T14:15:33.740Z,9.68
2022-10-26T14:18:03.749Z,8.45
2022-10-26T14:20:34.295Z,9.95
2022-10-26T14:23:04.025Z,12.02
2022-10-26T14:25:42.915Z,12.00
2022-10-26T14:28:24.170Z,10.93
2022-10-26T14:30:54.137Z,10.27
2022-10-26T14:33:27.078Z,9.80
2022-10-26T14:35:56.736Z,10.40
2022-10-26T14:38:30.734Z,9.25
2022-10-26T14:41:00.651Z,9.20
2022-10-26T14:43:30.518Z,9.77
2022-10-26T14:46:00.193Z,8.27
2022-10-26T14:48:34.086Z,10.23
2022-10-26T14:51:03.760Z,9.07
2022-10-26T14:53:37.786Z,10.15
2022-10-26T14:56:08.154Z,8.93
2022-10-26T14:58:37.929Z,10.27
2022-10-26T15:01:28.288Z,9.20
2022-10-26T15:04:07.479Z,9.80
2022-10-26T15:06:38.668Z,8.82
2022-10-26T15:09:08.383Z,9.45
2022-10-26T15:11:38.233Z,9.95
2022-10-26T15:14:07.832Z,9.30
2022-10-26T15:16:37.752Z,9.63
2022-10-26T15:19:11.665Z,9.02
2022-10-26T15:21:44.822Z,10.88
2022-10-26T15:24:23.682Z,9.20
2022-10-26T15:26:53.292Z,9.73
2022-10-26T15:29:41.358Z,11.02
2022-10-26T15:32:23.684Z,11.50
2022-10-26T15:35:10.260Z,11.85
2022-10-26T15:37:40.414Z,12.40
2022-10-26T15:40:10.408Z,12.98
2022-10-26T15:42:40.511Z,13.68
2022-10-26T15:45:16.586Z,11.40
2022-10-26T15:47:46.216Z,11.75
2022-10-26T15:50:16.700Z,10.55
2022-10-26T15:52:49.116Z,10.23
2022-10-26T15:55:19.970Z,9.88
2022-10-26T15:57:49.805Z,10.80
2022-10-26T16:00:19.736Z,9.48
2022-10-26T16:02:49.609Z,9.70
2022-10-26T16:05:19.527Z,8.15
2022-10-26T16:07:49.757Z,9.00
2022-10-26T16:10:26.350Z,7.97
2022-10-26T16:12:56.005Z,7.85
2022-10-26T16:15:26.593Z,8.23
2022-10-26T16:17:56.480Z,8.43
2022-10-26T16:20:29.099Z,8.63
2022-10-26T16:23:00.892Z,9.80
2022-10-26T16:25:30.601Z,8.77
2022-10-26T16:28:01.255Z,8.95
2022-10-26T16:30:32.493Z,8.55
2022-10-26T16:33:02.711Z,8.75
2022-10-26T16:35:32.376Z,8.40
2022-10-26T16:38:02.340Z,8.57
2022-10-26T16:40:32.185Z,9.52
2022-10-26T16:43:01.787Z,8.63
2022-10-26T16:45:31.384Z,8.60
2022-10-26T16:48:01.071Z,7.22
2022-10-26T16:50:35.433Z,7.78
2022-10-26T16:53:06.092Z,7.97
2022-10-26T16:55:35.716Z,8.60
2022-10-26T16:58:05.448Z,8.00
2022-10-26T17:00:37.203Z,8.65
2022-10-26T17:03:07.169Z,8.15
2022-10-26T17:05:37.059Z,7.72
2022-10-26T17:08:06.689Z,9.57
2022-10-26T17:10:36.643Z,7.60
2022-10-26T17:13:06.309Z,8.98
2022-10-26T17:15:35.862Z,7.80
2022-10-26T17:18:05.818Z,7.43
2022-10-26T17:20:35.540Z,7.45
2022-10-26T17:23:05.469Z,7.53
2022-10-26T17:25:39.957Z,6.93
2022-10-26T17:28:09.497Z,7.22
2022-10-26T17:30:39.491Z,7.45
2022-10-26T17:33:09.719Z,8.00
2022-10-26T17:35:39.585Z,7.28
2022-10-26T17:38:09.188Z,6.68
2022-10-26T17:40:38.843Z,7.63
2022-10-26T17:43:08.449Z,6.90
2022-10-26T17:45:37.995Z,7.05
2022-10-26T17:48:07.662Z,7.72
2022-10-26T17:50:37.310Z,7.38
2022-10-26T17:53:08.924Z,8.70
2022-10-26T17:55:38.539Z,8.25
2022-10-26T17:58:08.207Z,7.88
2022-10-26T18:00:37.936Z,7.70
2022-10-26T18:03:07.660Z,9.73
2022-10-26T18:05:37.601Z,9.55
2022-10-26T18:08:07.337Z,8.63
2022-10-26T18:10:38.224Z,7.93
2022-10-26T18:13:08.233Z,8.90
2022-10-26T18:15:38.429Z,7.85
2022-10-26T18:18:08.360Z,7.93
2022-10-26T18:20:38.212Z,6.88
2022-10-26T18:23:07.852Z,7.70
2022-10-26T18:25:38.031Z,8.35
2022-10-26T18:28:07.711Z,6.95
2022-10-26T18:30:37.445Z,7.63
2022-10-26T18:33:07.093Z,7.22
2022-10-26T18:35:36.702Z,7.10
2022-10-26T18:38:06.340Z,7.60
2022-10-26T18:40:36.263Z,8.13
2022-10-26T18:43:05.891Z,7.93
2022-10-26T18:45:35.565Z,7.28
2022-10-26T18:48:05.385Z,6.45
2022-10-26T18:50:35.218Z,6.47
2022-10-26T18:53:05.100Z,8.38
2022-10-26T18:55:34.835Z,6.20
2022-10-26T18:58:04.518Z,6.88
2022-10-26T19:00:34.289Z,7.43
2022-10-26T19:03:06.074Z,6.95
2022-10-26T19:05:40.281Z,7.15
2022-10-26T19:08:13.041Z,6.72
2022-10-26T19:10:42.730Z,7.68
2022-10-26T19:13:12.576Z,6.35
2022-10-26T19:15:42.243Z,6.25
2022-10-26T19:18:11.983Z,6.90
2022-10-26T19:20:42.792Z,7.18
2022-10-26T19:23:15.031Z,6.03
2022-10-26T19:25:45.003Z,7.88
2022-10-26T19:28:14.650Z,7.60
2022-10-26T19:30:44.410Z,6.60
2022-10-26T19:33:13.987Z,6.43
2022-10-26T19:35:43.803Z,6.40
2022-10-26T19:38:13.667Z,6.70
2022-10-26T19:40:43.421Z,6.97
2022-10-26T19:43:14.175Z,7.38
2022-10-26T19:45:43.818Z,7.22
2022-10-26T19:48:13.590Z,7.60
2022-10-26T19:50:43.320Z,6.53
2022-10-26T19:53:12.973Z,8.68
2022-10-26T19:55:45.589Z,7.22
2022-10-26T19:58:15.354Z,7.15
2022-10-26T20:00:45.239Z,7.88
2022-10-26T20:03:15.012Z,7.00
2022-10-26T20:05:45.360Z,7.07
2022-10-26T20:08:15.085Z,7.57
2022-10-26T20:10:45.612Z,7.45
2022-10-26T20:13:15.915Z,6.93
2022-10-26T20:15:45.546Z,7.70
2022-10-26T20:18:15.954Z,8.48
2022-10-26T20:20:45.772Z,7.43
2022-10-26T20:23:15.626Z,7.55
2022-10-26T20:25:51.663Z,7.57
2022-10-26T20:28:21.706Z,7.15
2022-10-26T20:30:51.782Z,6.97
2022-10-26T20:33:21.469Z,7.93
2022-10-26T20:35:51.046Z,7.43
2022-10-26T20:38:22.479Z,8.93
2022-10-26T20:41:03.717Z,8.32
2022-10-26T20:43:36.365Z,7.97
2022-10-26T20:46:06.105Z,8.13
2022-10-26T20:48:35.850Z,7.65
2022-10-26T20:51:23.758Z,8.30
2022-10-26T20:54:07.866Z,8.55
2022-10-26T20:56:37.698Z,8.25
2022-10-26T20:59:08.491Z,8.32
2022-10-26T21:01:39.932Z,9.43
2022-10-26T21:04:09.833Z,10.00
2022-10-26T21:06:42.507Z,8.15
2022-10-26T21:09:12.157Z,8.50
2022-10-26T21:11:42.391Z,9.25
2022-10-26T21:14:12.020Z,9.88
2022-10-26T21:16:41.797Z,10.20
2022-10-26T21:19:11.683Z,12.13
2022-10-26T21:21:42.464Z,13.27
2022-10-26T21:24:14.070Z,11.23
2022-10-26T21:26:43.659Z,11.07
2022-10-26T21:29:13.438Z,11.45
2022-10-26T21:31:43.410Z,10.70
2022-10-26T21:34:13.252Z,11.15
2022-10-26T21:36:42.926Z,9.85
2022-10-26T21:39:12.604Z,10.18
2022-10-26T21:41:42.313Z,10.15
2022-10-26T21:44:24.641Z,10.75
2022-10-26T21:47:01.650Z,9.98
2022-10-26T21:49:31.529Z,10.95
2022-10-26T21:52:01.508Z,9.80
2022-10-26T21:54:31.085Z,10.18
2022-10-26T21:57:00.927Z,9.70
2022-10-26T21:59:30.834Z,9.40
2022-10-26T22:02:00.621Z,10.07
2022-10-26T22:04:30.716Z,11.45
2022-10-26T22:07:00.348Z,9.73
2022-10-26T22:09:30.204Z,9.85
2022-10-26T22:11:59.886Z,8.85
2022-10-26T22:14:29.539Z,9.88
2022-10-26T22:16:59.092Z,9.57
2022-10-26T22:19:28.750Z,9.35
2022-10-26T22:21:58.435Z,10.00
2022-10-26T22:24:28.322Z,9.18
2022-10-26T22:26:59.260Z,9.25
2022-10-26T22:29:28.996Z,9.48
2022-10-26T22:31:58.920Z,9.80
2022-10-26T22:34:28.652Z,9.57
2022-10-26T22:36:58.504Z,9.80
2022-10-26T22:39:28.210Z,9.68
2022-10-26T22:41:58.032Z,9.02
2022-10-26T22:44:27.675Z,9.85
2022-10-26T22:46:57.370Z,9.85
2022-10-26T22:49:27.162Z,9.45
2022-10-26T22:51:56.926Z,9.13
2022-10-26T22:54:26.962Z,9.63
2022-10-26T22:56:56.886Z,8.93
2022-10-26T22:59:26.771Z,9.05
2022-10-26T23:01:56.708Z,9.27
2022-10-26T23:04:29.237Z,9.88
2022-10-26T23:06:59.076Z,10.55
2022-10-26T23:09:28.977Z,12.13
2022-10-26T23:11:58.668Z,12.75
2022-10-26T23:14:28.325Z,14.07
2022-10-26T23:16:58.049Z,14.82
2022-10-26T23:19:27.784Z,19.63
2022-10-26T23:21:57.582Z,20.45
2022-10-26T23:24:27.217Z,19.05
2022-10-26T23:26:57.118Z,20.27
2022-10-26T23:29:26.977Z,20.13
2022-10-26T23:31:57.123Z,20.13
2022-10-26T23:34:26.960Z,17.67
2022-10-26T23:36:56.737Z,17.60
2022-10-26T23:39:26.425Z,16.45
2022-10-26T23:41:56.277Z,14.25
2022-10-26T23:44:25.964Z,14.48
2022-10-26T23:46:55.741Z,12.70
2022-10-26T23:49:25.459Z,14.63
2022-10-26T23:51:55.356Z,13.57
2022-10-26T23:54:25.190Z,14.95
2022-10-26T23:56:54.919Z,14.30
2022-10-26T23:59:24.699Z,15.75
